sensor_id;sensor_type;location;lat;lon;timestamp;P1;durP1;ratioP1;P2;durP2;ratioP2
21424;SDS011;10873;51.132;16.848;2023-04-24T00:01:56;6.43;;;4.85;;
21424;SDS011;10873;51.132;16.848;2023-04-24T00:04:24;7.00;;;4.82;;
21424;SDS011;10873;51.132;16.848;2023-04-24T00:06:51;6.32;;;4.68;;
21424;SDS011;10873;51.132;16.848;2023-04-24T00:09:19;8.13;;;4.95;;
21424;SDS011;10873;51.132;16.848;2023-04-24T00:11:45;9.20;;;5.13;;
21424;SDS011;10873;51.132;16.848;2023-04-24T00:14:11;8.43;;;5.18;;
21424;SDS011;10873;51.132;16.848;2023-04-24T00:16:37;7.43;;;5.35;;
21424;SDS011;10873;51.132;16.848;2023-04-24T00:19:05;7.40;;;4.90;;
21424;SDS011;10873;51.132;16.848;2023-04-24T00:21:31;6.80;;;4.57;;
21424;SDS011;10873;51.132;16.848;2023-04-24T00:23:58;7.68;;;5.55;;
21424;SDS011;10873;51.132;16.848;2023-04-24T00:26:24;7.22;;;4.88;;
21424;SDS011;10873;51.132;16.848;2023-04-24T00:28:50;6.68;;;5.00;;
21424;SDS011;10873;51.132;16.848;2023-04-24T00:31:16;7.57;;;5.03;;
21424;SDS011;10873;51.132;16.848;2023-04-24T00:41:13;7.43;;;4.88;;
21424;SDS011;10873;51.132;16.848;2023-04-24T00:43:43;6.07;;;4.53;;
21424;SDS011;10873;51.132;16.848;2023-04-24T00:46:20;7.70;;;5.40;;
21424;SDS011;10873;51.132;16.848;2023-04-24T00:48:49;8.90;;;5.60;;
21424;SDS011;10873;51.132;16.848;2023-04-24T00:51:21;7.20;;;5.35;;
21424;SDS011;10873;51.132;16.848;2023-04-24T00:53:49;7.45;;;5.18;;
21424;SDS011;10873;51.132;16.848;2023-04-24T00:56:30;7.10;;;5.20;;
21424;SDS011;10873;51.132;16.848;2023-04-24T00:58:57;6.68;;;4.85;;
21424;SDS011;10873;51.132;16.848;2023-04-24T01:01:28;7.70;;;4.82;;
21424;SDS011;10873;51.132;16.848;2023-04-24T01:04:03;7.40;;;4.97;;
21424;SDS011;10873;51.132;16.848;2023-04-24T01:06:40;7.90;;;5.75;;
21424;SDS011;10873;51.132;16.848;2023-04-24T01:09:15;6.43;;;5.05;;
21424;SDS011;10873;51.132;16.848;2023-04-24T01:11:57;7.88;;;5.10;;
21424;SDS011;10873;51.132;16.848;2023-04-24T01:14:42;6.75;;;4.90;;
21424;SDS011;10873;51.132;16.848;2023-04-24T01:17:42;6.88;;;5.05;;
21424;SDS011;10873;51.132;16.848;2023-04-24T01:20:13;6.65;;;5.03;;
21424;SDS011;10873;51.132;16.848;2023-04-24T01:22:51;7.38;;;4.93;;
21424;SDS011;10873;51.132;16.848;2023-04-24T01:25:36;6.43;;;4.70;;
21424;SDS011;10873;51.132;16.848;2023-04-24T01:28:15;8.43;;;5.05;;
21424;SDS011;10873;51.132;16.848;2023-04-24T01:33:37;7.03;;;4.97;;
21424;SDS011;10873;51.132;16.848;2023-04-24T01:36:18;7.28;;;5.10;;
21424;SDS011;10873;51.132;16.848;2023-04-24T01:39:13;7.00;;;4.85;;
21424;SDS011;10873;51.132;16.848;2023-04-24T01:41:45;7.30;;;4.90;;
21424;SDS011;10873;51.132;16.848;2023-04-24T01:44:13;7.60;;;5.28;;
21424;SDS011;10873;51.132;16.848;2023-04-24T01:47:24;6.70;;;4.72;;
21424;SDS011;10873;51.132;16.848;2023-04-24T01:50:02;6.82;;;5.07;;
21424;SDS011;10873;51.132;16.848;2023-04-24T01:52:29;6.88;;;4.97;;
21424;SDS011;10873;51.132;16.848;2023-04-24T01:55:01;6.03;;;4.43;;
21424;SDS011;10873;51.132;16.848;2023-04-24T01:57:32;6.32;;;4.57;;
21424;SDS011;10873;51.132;16.848;2023-04-24T02:00:08;6.88;;;4.90;;
21424;SDS011;10873;51.132;16.848;2023-04-24T02:03:04;6.43;;;4.88;;
21424;SDS011;10873;51.132;16.848;2023-04-24T02:05:45;6.25;;;4.78;;
21424;SDS011;10873;51.132;16.848;2023-04-24T02:08:11;6.32;;;4.93;;
21424;SDS011;10873;51.132;16.848;2023-04-24T02:10:50;6.85;;;4.70;;
21424;SDS011;10873;51.132;16.848;2023-04-24T02:13:20;6.38;;;4.78;;
21424;SDS011;10873;51.132;16.848;2023-04-24T02:15:57;9.65;;;5.18;;
21424;SDS011;10873;51.132;16.848;2023-04-24T02:18:29;6.43;;;4.70;;
21424;SDS011;10873;51.132;16.848;2023-04-24T02:21:01;6.85;;;5.07;;
21424;SDS011;10873;51.132;16.848;2023-04-24T02:23:36;8.13;;;4.55;;
21424;SDS011;10873;51.132;16.848;2023-04-24T02:26:05;6.93;;;5.05;;
21424;SDS011;10873;51.132;16.848;2023-04-24T02:28:34;7.22;;;4.75;;
21424;SDS011;10873;51.132;16.848;2023-04-24T02:31:06;5.15;;;4.50;;
21424;SDS011;10873;51.132;16.848;2023-04-24T02:33:34;6.65;;;4.63;;
21424;SDS011;10873;51.132;16.848;2023-04-24T02:36:01;7.50;;;4.57;;
21424;SDS011;10873;51.132;16.848;2023-04-24T02:38:27;6.57;;;4.70;;
21424;SDS011;10873;51.132;16.848;2023-04-24T02:40:53;8.02;;;5.32;;
21424;SDS011;10873;51.132;16.848;2023-04-24T02:43:20;5.60;;;4.65;;
21424;SDS011;10873;51.132;16.848;2023-04-24T02:45:46;7.72;;;5.15;;
21424;SDS011;10873;51.132;16.848;2023-04-24T02:48:12;5.75;;;4.90;;
21424;SDS011;10873;51.132;16.848;2023-04-24T02:50:39;8.60;;;4.90;;
21424;SDS011;10873;51.132;16.848;2023-04-24T02:53:04;7.20;;;4.90;;
21424;SDS011;10873;51.132;16.848;2023-04-24T02:55:31;6.53;;;4.70;;
21424;SDS011;10873;51.132;16.848;2023-04-24T02:57:57;6.90;;;4.70;;
21424;SDS011;10873;51.132;16.848;2023-04-24T03:00:24;6.45;;;5.10;;
21424;SDS011;10873;51.132;16.848;2023-04-24T03:02:50;6.03;;;4.35;;
21424;SDS011;10873;51.132;16.848;2023-04-24T03:05:16;6.53;;;4.82;;
21424;SDS011;10873;51.132;16.848;2023-04-24T03:07:42;6.80;;;5.00;;
21424;SDS011;10873;51.132;16.848;2023-04-24T03:10:09;5.90;;;4.60;;
21424;SDS011;10873;51.132;16.848;2023-04-24T03:12:35;6.45;;;4.60;;
21424;SDS011;10873;51.132;16.848;2023-04-24T03:15:01;5.75;;;4.22;;
21424;SDS011;10873;51.132;16.848;2023-04-24T03:17:28;6.70;;;4.82;;
21424;SDS011;10873;51.132;16.848;2023-04-24T03:19:55;7.13;;;5.03;;
21424;SDS011;10873;51.132;16.848;2023-04-24T03:22:21;6.82;;;4.88;;
21424;SDS011;10873;51.132;16.848;2023-04-24T03:24:47;6.43;;;4.70;;
21424;SDS011;10873;51.132;16.848;2023-04-24T03:27:13;5.82;;;4.70;;
21424;SDS011;10873;51.132;16.848;2023-04-24T03:29:39;6.43;;;4.63;;
21424;SDS011;10873;51.132;16.848;2023-04-24T03:32:05;6.93;;;5.00;;
21424;SDS011;10873;51.132;16.848;2023-04-24T03:34:33;6.72;;;4.93;;
21424;SDS011;10873;51.132;16.848;2023-04-24T03:36:58;5.70;;;4.50;;
21424;SDS011;10873;51.132;16.848;2023-04-24T03:39:25;5.93;;;4.75;;
21424;SDS011;10873;51.132;16.848;2023-04-24T03:41:50;6.50;;;4.90;;
21424;SDS011;10873;51.132;16.848;2023-04-24T03:44:17;7.20;;;4.65;;
21424;SDS011;10873;51.132;16.848;2023-04-24T03:46:43;7.78;;;4.90;;
21424;SDS011;10873;51.132;16.848;2023-04-24T03:49:09;6.05;;;4.72;;
21424;SDS011;10873;51.132;16.848;2023-04-24T03:51:36;6.38;;;4.50;;
21424;SDS011;10873;51.132;16.848;2023-04-24T03:54:02;6.10;;;4.32;;
21424;SDS011;10873;51.132;16.848;2023-04-24T03:56:28;7.95;;;4.72;;
21424;SDS011;10873;51.132;16.848;2023-04-24T03:58:55;6.68;;;4.68;;
21424;SDS011;10873;51.132;16.848;2023-04-24T04:01:21;7.75;;;4.65;;
21424;SDS011;10873;51.132;16.848;2023-04-24T04:03:47;6.63;;;4.70;;
21424;SDS011;10873;51.132;16.848;2023-04-24T04:06:13;5.75;;;4.90;;
21424;SDS011;10873;51.132;16.848;2023-04-24T04:08:41;6.45;;;4.80;;
21424;SDS011;10873;51.132;16.848;2023-04-24T04:11:07;6.47;;;4.78;;
21424;SDS011;10873;51.132;16.848;2023-04-24T04:13:33;5.93;;;5.25;;
21424;SDS011;10873;51.132;16.848;2023-04-24T04:15:59;6.22;;;4.55;;
21424;SDS011;10873;51.132;16.848;2023-04-24T04:18:25;20.40;;;5.35;;
21424;SDS011;10873;51.132;16.848;2023-04-24T04:20:51;13.77;;;5.53;;
21424;SDS011;10873;51.132;16.848;2023-04-24T04:23:17;9.65;;;4.82;;
21424;SDS011;10873;51.132;16.848;2023-04-24T04:25:44;12.70;;;4.90;;
21424;SDS011;10873;51.132;16.848;2023-04-24T04:28:12;8.50;;;4.72;;
21424;SDS011;10873;51.132;16.848;2023-04-24T04:30:38;8.40;;;4.30;;
21424;SDS011;10873;51.132;16.848;2023-04-24T04:33:05;11.10;;;4.47;;
21424;SDS011;10873;51.132;16.848;2023-04-24T04:35:31;7.72;;;4.80;;
21424;SDS011;10873;51.132;16.848;2023-04-24T04:37:57;10.05;;;5.00;;
21424;SDS011;10873;51.132;16.848;2023-04-24T04:40:24;11.18;;;4.82;;
21424;SDS011;10873;51.132;16.848;2023-04-24T04:42:51;12.60;;;4.88;;
21424;SDS011;10873;51.132;16.848;2023-04-24T04:45:18;9.27;;;5.30;;
21424;SDS011;10873;51.132;16.848;2023-04-24T04:47:44;16.05;;;6.88;;
21424;SDS011;10873;51.132;16.848;2023-04-24T04:50:10;13.25;;;6.38;;
21424;SDS011;10873;51.132;16.848;2023-04-24T04:52:36;11.82;;;5.93;;
21424;SDS011;10873;51.132;16.848;2023-04-24T04:55:02;12.90;;;6.10;;
21424;SDS011;10873;51.132;16.848;2023-04-24T04:57:29;10.75;;;5.72;;
21424;SDS011;10873;51.132;16.848;2023-04-24T04:59:57;9.95;;;5.60;;
21424;SDS011;10873;51.132;16.848;2023-04-24T05:02:23;9.80;;;5.15;;
21424;SDS011;10873;51.132;16.848;2023-04-24T05:04:49;7.05;;;4.95;;
21424;SDS011;10873;51.132;16.848;2023-04-24T05:07:16;9.63;;;5.00;;
21424;SDS011;10873;51.132;16.848;2023-04-24T05:09:43;13.73;;;4.70;;
21424;SDS011;10873;51.132;16.848;2023-04-24T05:12:10;8.98;;;5.07;;
21424;SDS011;10873;51.132;16.848;2023-04-24T05:14:36;10.00;;;4.60;;
21424;SDS011;10873;51.132;16.848;2023-04-24T05:17:03;15.20;;;5.35;;
21424;SDS011;10873;51.132;16.848;2023-04-24T05:19:29;14.18;;;5.00;;
21424;SDS011;10873;51.132;16.848;2023-04-24T05:21:58;7.05;;;4.95;;
21424;SDS011;10873;51.132;16.848;2023-04-24T05:24:24;7.78;;;5.05;;
21424;SDS011;10873;51.132;16.848;2023-04-24T05:26:50;6.00;;;4.65;;
21424;SDS011;10873;51.132;16.848;2023-04-24T05:29:16;8.13;;;4.70;;
21424;SDS011;10873;51.132;16.848;2023-04-24T05:31:44;8.50;;;4.60;;
21424;SDS011;10873;51.132;16.848;2023-04-24T05:34:11;9.90;;;5.20;;
21424;SDS011;10873;51.132;16.848;2023-04-24T05:36:38;6.68;;;5.20;;
21424;SDS011;10873;51.132;16.848;2023-04-24T05:39:04;6.32;;;4.10;;
21424;SDS011;10873;51.132;16.848;2023-04-24T05:41:30;5.57;;;4.03;;
21424;SDS011;10873;51.132;16.848;2023-04-24T05:43:56;6.93;;;4.90;;
21424;SDS011;10873;51.132;16.848;2023-04-24T05:46:22;7.25;;;4.68;;
21424;SDS011;10873;51.132;16.848;2023-04-24T05:48:48;11.63;;;4.82;;
21424;SDS011;10873;51.132;16.848;2023-04-24T05:51:16;33.28;;;5.22;;
21424;SDS011;10873;51.132;16.848;2023-04-24T05:53:42;27.00;;;6.05;;
21424;SDS011;10873;51.132;16.848;2023-04-24T05:56:08;17.63;;;4.55;;
21424;SDS011;10873;51.132;16.848;2023-04-24T05:58:34;13.70;;;4.63;;
21424;SDS011;10873;51.132;16.848;2023-04-24T06:01:00;17.27;;;5.10;;
21424;SDS011;10873;51.132;16.848;2023-04-24T06:03:27;18.85;;;5.47;;
21424;SDS011;10873;51.132;16.848;2023-04-24T06:05:53;12.27;;;4.70;;
21424;SDS011;10873;51.132;16.848;2023-04-24T06:08:20;10.63;;;4.38;;
21424;SDS011;10873;51.132;16.848;2023-04-24T06:10:46;9.13;;;4.88;;
21424;SDS011;10873;51.132;16.848;2023-04-24T06:13:13;8.07;;;4.90;;
21424;SDS011;10873;51.132;16.848;2023-04-24T06:15:39;7.95;;;4.82;;
21424;SDS011;10873;51.132;16.848;2023-04-24T06:18:06;7.40;;;4.22;;
21424;SDS011;10873;51.132;16.848;2023-04-24T06:20:32;11.13;;;4.57;;
21424;SDS011;10873;51.132;16.848;2023-04-24T06:22:58;7.07;;;4.35;;
21424;SDS011;10873;51.132;16.848;2023-04-24T06:25:26;7.03;;;4.40;;
21424;SDS011;10873;51.132;16.848;2023-04-24T06:27:52;9.20;;;4.70;;
21424;SDS011;10873;51.132;16.848;2023-04-24T06:30:18;9.30;;;4.30;;
21424;SDS011;10873;51.132;16.848;2023-04-24T06:32:44;7.35;;;4.15;;
21424;SDS011;10873;51.132;16.848;2023-04-24T06:35:10;8.88;;;4.28;;
21424;SDS011;10873;51.132;16.848;2023-04-24T06:37:38;6.32;;;4.30;;
21424;SDS011;10873;51.132;16.848;2023-04-24T06:40:05;8.10;;;4.60;;
21424;SDS011;10873;51.132;16.848;2023-04-24T06:42:33;7.28;;;4.47;;
21424;SDS011;10873;51.132;16.848;2023-04-24T06:45:00;8.80;;;4.80;;
21424;SDS011;10873;51.132;16.848;2023-04-24T06:47:26;6.85;;;4.20;;
21424;SDS011;10873;51.132;16.848;2023-04-24T06:49:52;7.57;;;4.25;;
21424;SDS011;10873;51.132;16.848;2023-04-24T06:52:19;6.93;;;4.40;;
21424;SDS011;10873;51.132;16.848;2023-04-24T06:54:45;5.95;;;4.38;;
21424;SDS011;10873;51.132;16.848;2023-04-24T06:57:11;7.63;;;4.13;;
21424;SDS011;10873;51.132;16.848;2023-04-24T06:59:39;7.10;;;4.82;;
21424;SDS011;10873;51.132;16.848;2023-04-24T07:02:05;7.32;;;4.80;;
21424;SDS011;10873;51.132;16.848;2023-04-24T07:04:31;7.22;;;4.68;;
21424;SDS011;10873;51.132;16.848;2023-04-24T07:06:57;8.52;;;4.95;;
21424;SDS011;10873;51.132;16.848;2023-04-24T07:09:24;7.30;;;4.55;;
21424;SDS011;10873;51.132;16.848;2023-04-24T07:11:51;6.38;;;4.78;;
21424;SDS011;10873;51.132;16.848;2023-04-24T07:14:17;7.50;;;4.68;;
21424;SDS011;10873;51.132;16.848;2023-04-24T07:16:45;8.10;;;4.38;;
21424;SDS011;10873;51.132;16.848;2023-04-24T07:19:11;8.75;;;4.93;;
21424;SDS011;10873;51.132;16.848;2023-04-24T07:21:37;9.48;;;5.38;;
21424;SDS011;10873;51.132;16.848;2023-04-24T07:24:04;9.45;;;5.35;;
21424;SDS011;10873;51.132;16.848;2023-04-24T07:26:30;8.00;;;5.30;;
21424;SDS011;10873;51.132;16.848;2023-04-24T07:28:56;9.10;;;4.78;;
21424;SDS011;10873;51.132;16.848;2023-04-24T07:31:22;12.13;;;5.22;;
21424;SDS011;10873;51.132;16.848;2023-04-24T07:33:50;9.55;;;5.18;;
21424;SDS011;10873;51.132;16.848;2023-04-24T07:36:15;7.47;;;4.97;;
21424;SDS011;10873;51.132;16.848;2023-04-24T10:07:34;10.98;;;7.70;;
21424;SDS011;10873;51.132;16.848;2023-04-24T10:10:00;10.45;;;7.90;;
21424;SDS011;10873;51.132;16.848;2023-04-24T10:12:26;8.38;;;6.35;;
21424;SDS011;10873;51.132;16.848;2023-04-24T10:14:54;7.50;;;6.00;;
21424;SDS011;10873;51.132;16.848;2023-04-24T10:17:21;7.90;;;5.85;;
21424;SDS011;10873;51.132;16.848;2023-04-24T10:19:49;7.13;;;5.20;;
21424;SDS011;10873;51.132;16.848;2023-04-24T10:22:15;6.75;;;4.97;;
21424;SDS011;10873;51.132;16.848;2023-04-24T10:24:44;8.00;;;5.15;;
21424;SDS011;10873;51.132;16.848;2023-04-24T10:27:12;6.53;;;4.78;;
21424;SDS011;10873;51.132;16.848;2023-04-24T10:29:40;7.38;;;4.53;;
21424;SDS011;10873;51.132;16.848;2023-04-24T10:32:09;5.63;;;3.92;;
21424;SDS011;10873;51.132;16.848;2023-04-24T10:34:35;4.93;;;3.97;;
21424;SDS011;10873;51.132;16.848;2023-04-24T10:37:01;5.60;;;3.95;;
21424;SDS011;10873;51.132;16.848;2023-04-24T10:39:28;5.55;;;4.05;;
21424;SDS011;10873;51.132;16.848;2023-04-24T10:41:57;5.00;;;3.85;;
21424;SDS011;10873;51.132;16.848;2023-04-24T10:44:23;4.68;;;4.03;;
21424;SDS011;10873;51.132;16.848;2023-04-24T10:46:52;5.13;;;3.92;;
21424;SDS011;10873;51.132;16.848;2023-04-24T10:49:27;3.88;;;3.15;;
21424;SDS011;10873;51.132;16.848;2023-04-24T10:51:54;3.78;;;3.38;;
21424;SDS011;10873;51.132;16.848;2023-04-24T10:54:27;4.25;;;3.25;;
21424;SDS011;10873;51.132;16.848;2023-04-24T11:02:50;4.45;;;3.05;;
21424;SDS011;10873;51.132;16.848;2023-04-24T11:05:19;5.47;;;3.15;;
21424;SDS011;10873;51.132;16.848;2023-04-24T11:10:38;5.28;;;3.30;;
21424;SDS011;10873;51.132;16.848;2023-04-24T11:13:10;5.55;;;3.00;;
21424;SDS011;10873;51.132;16.848;2023-04-24T11:15:41;5.60;;;3.08;;
21424;SDS011;10873;51.132;16.848;2023-04-24T11:18:12;8.90;;;3.33;;
21424;SDS011;10873;51.132;16.848;2023-04-24T11:20:41;15.23;;;3.70;;
21424;SDS011;10873;51.132;16.848;2023-04-24T11:23:07;4.53;;;2.85;;
21424;SDS011;10873;51.132;16.848;2023-04-24T11:25:34;4.22;;;2.85;;
21424;SDS011;10873;51.132;16.848;2023-04-24T11:28:04;7.28;;;3.20;;
21424;SDS011;10873;51.132;16.848;2023-04-24T11:30:33;8.52;;;3.33;;
21424;SDS011;10873;51.132;16.848;2023-04-24T11:33:01;6.38;;;2.90;;
21424;SDS011;10873;51.132;16.848;2023-04-24T11:35:29;8.48;;;2.92;;
21424;SDS011;10873;51.132;16.848;2023-04-24T11:37:55;6.43;;;2.92;;
21424;SDS011;10873;51.132;16.848;2023-04-24T11:40:22;5.75;;;2.80;;
21424;SDS011;10873;51.132;16.848;2023-04-24T11:42:49;6.40;;;2.72;;
21424;SDS011;10873;51.132;16.848;2023-04-24T11:45:18;8.57;;;2.72;;
21424;SDS011;10873;51.132;16.848;2023-04-24T11:47:49;8.05;;;2.80;;
21424;SDS011;10873;51.132;16.848;2023-04-24T11:50:16;9.25;;;3.13;;
21424;SDS011;10873;51.132;16.848;2023-04-24T11:52:43;6.78;;;2.90;;
21424;SDS011;10873;51.132;16.848;2023-04-24T11:55:22;8.10;;;3.20;;
21424;SDS011;10873;51.132;16.848;2023-04-24T11:57:52;11.20;;;3.17;;
21424;SDS011;10873;51.132;16.848;2023-04-24T12:00:22;16.13;;;4.10;;
21424;SDS011;10873;51.132;16.848;2023-04-24T12:02:50;9.18;;;3.35;;
21424;SDS011;10873;51.132;16.848;2023-04-24T12:05:20;12.43;;;3.80;;
21424;SDS011;10873;51.132;16.848;2023-04-24T12:07:47;14.38;;;4.57;;
21424;SDS011;10873;51.132;16.848;2023-04-24T12:10:13;15.27;;;4.57;;
21424;SDS011;10873;51.132;16.848;2023-04-24T12:12:40;10.82;;;4.68;;
21424;SDS011;10873;51.132;16.848;2023-04-24T12:15:06;13.73;;;4.93;;
21424;SDS011;10873;51.132;16.848;2023-04-24T12:17:33;13.00;;;4.70;;
21424;SDS011;10873;51.132;16.848;2023-04-24T12:20:04;14.15;;;4.28;;
21424;SDS011;10873;51.132;16.848;2023-04-24T12:22:44;14.32;;;4.50;;
21424;SDS011;10873;51.132;16.848;2023-04-24T12:25:12;12.57;;;4.32;;
21424;SDS011;10873;51.132;16.848;2023-04-24T12:27:38;10.75;;;3.97;;
21424;SDS011;10873;51.132;16.848;2023-04-24T12:30:05;7.22;;;3.17;;
21424;SDS011;10873;51.132;16.848;2023-04-24T12:32:40;9.15;;;3.75;;
21424;SDS011;10873;51.132;16.848;2023-04-24T12:35:09;8.63;;;3.28;;
21424;SDS011;10873;51.132;16.848;2023-04-24T12:37:35;6.53;;;3.33;;
21424;SDS011;10873;51.132;16.848;2023-04-24T12:40:02;6.03;;;3.30;;
21424;SDS011;10873;51.132;16.848;2023-04-24T12:42:31;12.23;;;3.58;;
21424;SDS011;10873;51.132;16.848;2023-04-24T12:44:58;12.13;;;3.70;;
21424;SDS011;10873;51.132;16.848;2023-04-24T12:47:26;8.93;;;3.35;;
21424;SDS011;10873;51.132;16.848;2023-04-24T12:49:52;8.30;;;3.03;;
21424;SDS011;10873;51.132;16.848;2023-04-24T12:52:19;12.07;;;3.92;;
21424;SDS011;10873;51.132;16.848;2023-04-24T12:54:46;14.57;;;3.85;;
21424;SDS011;10873;51.132;16.848;2023-04-24T12:57:12;10.82;;;3.78;;
21424;SDS011;10873;51.132;16.848;2023-04-24T12:59:38;11.18;;;4.13;;
21424;SDS011;10873;51.132;16.848;2023-04-24T13:02:04;11.35;;;3.60;;
21424;SDS011;10873;51.132;16.848;2023-04-24T13:04:31;14.55;;;4.30;;
21424;SDS011;10873;51.132;16.848;2023-04-24T13:06:57;10.88;;;3.45;;
21424;SDS011;10873;51.132;16.848;2023-04-24T13:09:25;13.75;;;4.07;;
21424;SDS011;10873;51.132;16.848;2023-04-24T13:11:51;17.70;;;4.65;;
21424;SDS011;10873;51.132;16.848;2023-04-24T13:14:17;13.40;;;4.20;;
21424;SDS011;10873;51.132;16.848;2023-04-24T13:16:43;17.42;;;3.92;;
21424;SDS011;10873;51.132;16.848;2023-04-24T13:19:09;27.25;;;3.55;;
21424;SDS011;10873;51.132;16.848;2023-04-24T13:21:35;20.90;;;3.35;;
21424;SDS011;10873;51.132;16.848;2023-04-24T13:24:01;21.40;;;3.65;;
21424;SDS011;10873;51.132;16.848;2023-04-24T13:26:31;12.45;;;2.90;;
21424;SDS011;10873;51.132;16.848;2023-04-24T13:28:57;13.00;;;2.72;;
21424;SDS011;10873;51.132;16.848;2023-04-24T13:31:23;11.82;;;2.58;;
21424;SDS011;10873;51.132;16.848;2023-04-24T13:33:49;8.60;;;2.70;;
21424;SDS011;10873;51.132;16.848;2023-04-24T13:36:15;7.63;;;2.42;;
21424;SDS011;10873;51.132;16.848;2023-04-24T13:38:43;10.43;;;2.22;;
21424;SDS011;10873;51.132;16.848;2023-04-24T13:41:09;6.07;;;2.38;;
21424;SDS011;10873;51.132;16.848;2023-04-24T13:43:37;5.57;;;2.20;;
21424;SDS011;10873;51.132;16.848;2023-04-24T13:46:03;4.88;;;2.22;;
21424;SDS011;10873;51.132;16.848;2023-04-24T13:48:29;3.85;;;2.15;;
21424;SDS011;10873;51.132;16.848;2023-04-24T13:50:55;4.25;;;2.10;;
21424;SDS011;10873;51.132;16.848;2023-04-24T13:53:21;5.25;;;2.20;;
21424;SDS011;10873;51.132;16.848;2023-04-24T13:55:47;7.20;;;2.10;;
21424;SDS011;10873;51.132;16.848;2023-04-24T13:58:13;6.20;;;1.83;;
21424;SDS011;10873;51.132;16.848;2023-04-24T14:00:41;6.70;;;1.92;;
21424;SDS011;10873;51.132;16.848;2023-04-24T14:03:07;4.30;;;1.98;;
21424;SDS011;10873;51.132;16.848;2023-04-24T14:05:33;6.10;;;2.33;;
21424;SDS011;10873;51.132;16.848;2023-04-24T14:07:59;5.22;;;2.10;;
21424;SDS011;10873;51.132;16.848;2023-04-24T14:10:25;3.28;;;1.90;;
21424;SDS011;10873;51.132;16.848;2023-04-24T14:12:52;4.43;;;1.88;;
21424;SDS011;10873;51.132;16.848;2023-04-24T14:15:18;6.40;;;1.95;;
21424;SDS011;10873;51.132;16.848;2023-04-24T14:17:47;4.57;;;1.90;;
21424;SDS011;10873;51.132;16.848;2023-04-24T14:20:13;3.65;;;1.90;;
21424;SDS011;10873;51.132;16.848;2023-04-24T14:22:39;4.13;;;2.17;;
21424;SDS011;10873;51.132;16.848;2023-04-24T14:25:05;2.47;;;1.55;;
21424;SDS011;10873;51.132;16.848;2023-04-24T14:27:32;3.13;;;1.70;;
21424;SDS011;10873;51.132;16.848;2023-04-24T14:29:59;4.32;;;1.85;;
21424;SDS011;10873;51.132;16.848;2023-04-24T14:32:26;2.53;;;1.80;;
21424;SDS011;10873;51.132;16.848;2023-04-24T14:34:53;7.18;;;1.85;;
21424;SDS011;10873;51.132;16.848;2023-04-24T14:37:19;3.35;;;1.98;;
21424;SDS011;10873;51.132;16.848;2023-04-24T14:39:45;2.92;;;2.20;;
21424;SDS011;10873;51.132;16.848;2023-04-24T14:42:11;3.50;;;2.08;;
21424;SDS011;10873;51.132;16.848;2023-04-24T14:44:37;4.32;;;1.88;;
21424;SDS011;10873;51.132;16.848;2023-04-24T14:47:04;6.18;;;1.92;;
21424;SDS011;10873;51.132;16.848;2023-04-24T14:49:30;4.00;;;1.80;;
21424;SDS011;10873;51.132;16.848;2023-04-24T14:51:57;3.53;;;1.92;;
21424;SDS011;10873;51.132;16.848;2023-04-24T14:54:23;4.20;;;1.90;;
21424;SDS011;10873;51.132;16.848;2023-04-24T14:56:50;1.88;;;1.45;;
21424;SDS011;10873;51.132;16.848;2023-04-24T14:59:16;3.70;;;2.08;;
21424;SDS011;10873;51.132;16.848;2023-04-24T15:01:42;5.60;;;1.92;;
21424;SDS011;10873;51.132;16.848;2023-04-24T15:04:08;4.53;;;1.90;;
21424;SDS011;10873;51.132;16.848;2023-04-24T15:06:34;3.75;;;1.95;;
21424;SDS011;10873;51.132;16.848;2023-04-24T15:09:02;4.72;;;1.85;;
21424;SDS011;10873;51.132;16.848;2023-04-24T15:11:28;5.03;;;2.00;;
21424;SDS011;10873;51.132;16.848;2023-04-24T15:13:55;4.13;;;2.30;;
21424;SDS011;10873;51.132;16.848;2023-04-24T15:16:23;5.10;;;2.33;;
21424;SDS011;10873;51.132;16.848;2023-04-24T15:18:48;4.97;;;2.20;;
21424;SDS011;10873;51.132;16.848;2023-04-24T15:21:15;11.75;;;2.25;;
21424;SDS011;10873;51.132;16.848;2023-04-24T15:23:41;7.90;;;2.03;;
21424;SDS011;10873;51.132;16.848;2023-04-24T15:26:08;3.80;;;1.98;;
21424;SDS011;10873;51.132;16.848;2023-04-24T15:28:34;5.60;;;2.30;;
21424;SDS011;10873;51.132;16.848;2023-04-24T15:31:00;8.93;;;2.75;;
21424;SDS011;10873;51.132;16.848;2023-04-24T15:33:26;6.53;;;2.17;;
21424;SDS011;10873;51.132;16.848;2023-04-24T15:35:52;5.38;;;1.95;;
21424;SDS011;10873;51.132;16.848;2023-04-24T15:38:18;3.83;;;2.08;;
21424;SDS011;10873;51.132;16.848;2023-04-24T15:40:44;4.25;;;2.13;;
21424;SDS011;10873;51.132;16.848;2023-04-24T15:43:11;6.30;;;2.13;;
21424;SDS011;10873;51.132;16.848;2023-04-24T15:45:37;4.28;;;2.10;;
21424;SDS011;10873;51.132;16.848;2023-04-24T15:48:03;4.95;;;2.13;;
21424;SDS011;10873;51.132;16.848;2023-04-24T15:50:30;2.58;;;1.90;;
21424;SDS011;10873;51.132;16.848;2023-04-24T15:52:55;4.82;;;2.25;;
21424;SDS011;10873;51.132;16.848;2023-04-24T15:55:22;2.53;;;1.92;;
21424;SDS011;10873;51.132;16.848;2023-04-24T15:57:47;3.45;;;2.10;;
21424;SDS011;10873;51.132;16.848;2023-04-24T16:00:16;4.88;;;1.98;;
21424;SDS011;10873;51.132;16.848;2023-04-24T16:02:42;2.50;;;2.03;;
21424;SDS011;10873;51.132;16.848;2023-04-24T16:05:09;5.75;;;2.33;;
21424;SDS011;10873;51.132;16.848;2023-04-24T16:07:36;6.45;;;2.05;;
21424;SDS011;10873;51.132;16.848;2023-04-24T16:10:03;2.80;;;1.88;;
21424;SDS011;10873;51.132;16.848;2023-04-24T16:12:29;4.80;;;2.10;;
21424;SDS011;10873;51.132;16.848;2023-04-24T16:14:55;3.05;;;1.90;;
21424;SDS011;10873;51.132;16.848;2023-04-24T16:17:23;7.20;;;2.17;;
21424;SDS011;10873;51.132;16.848;2023-04-24T16:19:50;3.30;;;2.00;;
21424;SDS011;10873;51.132;16.848;2023-04-24T16:22:15;4.97;;;2.13;;
21424;SDS011;10873;51.132;16.848;2023-04-24T16:24:42;5.25;;;2.47;;
21424;SDS011;10873;51.132;16.848;2023-04-24T16:27:08;2.80;;;1.92;;
21424;SDS011;10873;51.132;16.848;2023-04-24T16:29:35;2.92;;;2.05;;
21424;SDS011;10873;51.132;16.848;2023-04-24T16:32:01;3.85;;;2.03;;
21424;SDS011;10873;51.132;16.848;2023-04-24T16:34:28;3.85;;;2.10;;
21424;SDS011;10873;51.132;16.848;2023-04-24T16:36:54;4.50;;;2.28;;
21424;SDS011;10873;51.132;16.848;2023-04-24T16:39:20;2.90;;;2.03;;
21424;SDS011;10873;51.132;16.848;2023-04-24T16:41:46;4.38;;;2.08;;
21424;SDS011;10873;51.132;16.848;2023-04-24T16:44:14;3.08;;;2.13;;
21424;SDS011;10873;51.132;16.848;2023-04-24T16:46:40;2.35;;;1.65;;
21424;SDS011;10873;51.132;16.848;2023-04-24T16:49:06;4.75;;;2.40;;
21424;SDS011;10873;51.132;16.848;2023-04-24T16:51:33;2.95;;;2.30;;
21424;SDS011;10873;51.132;16.848;2023-04-24T16:53:59;4.45;;;2.60;;
21424;SDS011;10873;51.132;16.848;2023-04-24T16:56:25;5.78;;;2.67;;
21424;SDS011;10873;51.132;16.848;2023-04-24T16:58:52;4.30;;;3.13;;
21424;SDS011;10873;51.132;16.848;2023-04-24T17:01:18;4.80;;;2.95;;
21424;SDS011;10873;51.132;16.848;2023-04-24T17:03:44;6.00;;;2.78;;
21424;SDS011;10873;51.132;16.848;2023-04-24T17:06:10;7.80;;;2.75;;
21424;SDS011;10873;51.132;16.848;2023-04-24T17:08:38;4.10;;;2.55;;
21424;SDS011;10873;51.132;16.848;2023-04-24T17:11:04;8.07;;;3.17;;
21424;SDS011;10873;51.132;16.848;2023-04-24T17:13:30;7.72;;;2.78;;
21424;SDS011;10873;51.132;16.848;2023-04-24T17:15:56;4.25;;;2.50;;
21424;SDS011;10873;51.132;16.848;2023-04-24T17:18:23;3.72;;;2.60;;
21424;SDS011;10873;51.132;16.848;2023-04-24T17:20:49;4.05;;;2.58;;
21424;SDS011;10873;51.132;16.848;2023-04-24T17:23:15;5.18;;;2.90;;
21424;SDS011;10873;51.132;16.848;2023-04-24T17:25:42;4.15;;;2.38;;